Time;durP1;ratioP1;P1;durP2;ratioP2;P2;SDS_P1;SDS_P2;PMS_P1;PMS_P2;Temp;Humidity;BMP_temperature;BMP_pressure;BME280_temperature;BME280_humidity;BME280_pressure;Samples;Min_cycle;Max_cycle;Signal;HPM_P1;HPM_P2
2023/01/08 00:05:29;;;;;;;13.82;7.75;;;;;;;20.98;51.04;100578.88;20839796;28;20527;-77
2023/01/08 00:15:30;;;;;;;14.65;7.53;;;;;;;20.96;50.96;100586.09;20836225;28;20041;-79
2023/01/08 00:25:31;;;;;;;11.77;7.60;;;;;;;20.95;51.18;100587.84;20823602;28;20081;-75
2023/01/08 00:35:32;;;;;;;13.40;7.57;;;;;;;20.94;51.23;100582.72;20834145;28;20048;-75
2023/01/08 00:45:32;;;;;;;13.32;7.18;;;;;;;20.92;51.11;100564.41;20834765;28;20044;-76
2023/01/08 00:55:32;;;;;;;10.80;6.80;;;;;;;20.92;51.23;100560.91;20851879;28;20469;-74
2023/01/08 01:05:34;;;;;;;11.43;6.95;;;;;;;20.92;51.08;100555.66;20842689;28;20124;-75
2023/01/08 01:15:35;;;;;;;10.98;6.90;;;;;;;20.89;51.53;100569.88;20851114;28;20041;-77
2023/01/08 01:25:36;;;;;;;11.27;7.35;;;;;;;20.89;51.23;100569.88;20842872;28;20033;-77
2023/01/08 01:35:37;;;;;;;12.10;6.60;;;;;;;20.88;51.21;100567.38;20851897;28;21020;-76
2023/01/08 01:45:38;;;;;;;10.48;6.65;;;;;;;20.87;51.15;100547.25;20855982;28;20083;-78
2023/01/08 01:55:42;;;;;;;8.93;6.13;;;;;;;20.86;51.38;100527.16;20843511;28;20475;-77
2023/01/08 02:06:04;;;;;;;9.45;6.07;;;;;;;20.83;51.64;100501.91;20825074;28;20495;-74
2023/01/08 02:16:14;;;;;;;9.57;6.63;;;;;;;20.82;51.49;100496.75;20826726;28;20048;-75
2023/01/08 02:26:29;;;;;;;9.85;6.50;;;;;;;20.83;51.46;100494.00;20829452;28;20597;-75
2023/01/08 02:36:47;;;;;;;11.13;6.05;;;;;;;20.81;51.45;100493.28;20833885;28;20376;-76
2023/01/08 02:46:51;;;;;;;10.10;6.70;;;;;;;20.79;51.30;100484.69;20838094;28;20064;-77
2023/01/08 02:56:58;;;;;;;10.35;6.32;;;;;;;20.78;51.80;100475.09;20818521;28;20057;-75
2023/01/08 03:07:00;;;;;;;8.95;6.05;;;;;;;20.77;51.57;100470.78;20842010;28;20063;-75
2023/01/08 03:17:23;;;;;;;9.03;6.23;;;;;;;20.75;51.67;100454.25;20846161;28;20559;-75
2023/01/08 03:27:28;;;;;;;10.07;6.25;;;;;;;20.74;51.78;100455.25;20839199;28;20045;-75
2023/01/08 03:37:36;;;;;;;8.18;5.80;;;;;;;20.73;51.97;100457.00;20840873;28;20076;-77
2023/01/08 03:47:38;;;;;;;7.97;5.68;;;;;;;20.74;51.75;100447.34;20839865;28;20049;-74
2023/01/08 03:57:39;;;;;;;9.57;6.10;;;;;;;20.71;51.69;100429.94;20828112;28;20064;-73
2023/01/08 04:07:39;;;;;;;8.07;5.50;;;;;;;20.71;51.81;100426.47;20832726;28;20040;-74
2023/01/08 04:17:40;;;;;;;8.75;5.68;;;;;;;20.69;52.06;100431.88;20843499;28;20048;-74
2023/01/08 04:27:40;;;;;;;8.77;5.90;;;;;;;20.68;51.67;100439.84;20838572;28;20179;-74
2023/01/08 04:37:41;;;;;;;7.95;6.07;;;;;;;20.68;51.67;100429.31;20854881;28;20049;-74
2023/01/08 04:47:41;;;;;;;8.48;5.75;;;;;;;20.65;51.64;100435.66;20863710;28;20051;-77
2023/01/08 04:57:42;;;;;;;8.43;6.00;;;;;;;20.67;51.97;100440.81;20848372;28;20048;-73
2023/01/08 05:07:42;;;;;;;8.30;5.78;;;;;;;20.66;52.23;100439.97;20843283;28;20071;-74
2023/01/08 05:17:42;;;;;;;8.80;6.10;;;;;;;20.70;52.14;100427.44;20859271;28;20029;-75
2023/01/08 05:27:44;;;;;;;9.50;6.63;;;;;;;20.78;52.15;100425.09;20847940;28;20932;-76
2023/01/08 05:37:44;;;;;;;9.55;6.32;;;;;;;20.85;51.97;100410.53;20837228;28;20037;-75
2023/01/08 05:47:45;;;;;;;8.02;5.30;;;;;;;20.92;52.26;100410.88;20851521;28;20037;-74
2023/01/08 05:57:45;;;;;;;6.47;5.00;;;;;;;20.99;52.18;100403.38;20858906;28;20511;-77
2023/01/08 06:07:46;;;;;;;7.03;5.22;;;;;;;21.05;52.26;100382.66;20799111;28;20041;-76
2023/01/08 06:17:46;;;;;;;8.05;5.68;;;;;;;21.13;52.13;100384.72;20863190;28;20116;-75
2023/01/08 06:27:52;;;;;;;8.65;5.22;;;;;;;21.19;51.98;100392.16;20817940;28;20083;-77
2023/01/08 06:37:55;;;;;;;6.75;4.93;;;;;;;21.23;51.76;100379.59;20833780;28;20033;-75
2023/01/08 06:48:00;;;;;;;7.00;5.10;;;;;;;21.28;51.92;100380.06;20842464;28;20071;-77
2023/01/08 06:58:01;;;;;;;7.13;5.57;;;;;;;21.32;51.63;100385.91;20841106;28;20262;-75
2023/01/08 07:08:01;;;;;;;7.10;5.10;;;;;;;21.34;51.72;100381.38;20837496;28;20056;-75
2023/01/08 07:18:06;;;;;;;6.68;5.00;;;;;;;21.37;51.80;100384.63;20840577;28;20041;-78
2023/01/08 07:28:11;;;;;;;7.28;5.40;;;;;;;21.40;51.80;100380.91;20825038;28;20097;-78
2023/01/08 07:38:12;;;;;;;6.82;5.45;;;;;;;21.41;51.43;100377.28;20828115;28;20456;-74
2023/01/08 07:48:15;;;;;;;7.25;5.50;;;;;;;21.43;51.26;100372.75;20815197;28;20057;-74
2023/01/08 07:58:15;;;;;;;10.85;5.68;;;;;;;21.51;52.27;100359.81;20822978;28;20059;-76
2023/01/08 08:08:17;;;;;;;8.40;5.57;;;;;;;21.57;52.76;100366.44;20835480;28;20069;-74
2023/01/08 08:18:17;;;;;;;7.57;5.50;;;;;;;21.57;52.73;100351.44;20841970;28;20499;-75
2023/01/08 08:28:20;;;;;;;9.18;5.72;;;;;;;21.60;52.40;100331.91;20843782;28;20040;-76
2023/01/08 08:38:20;;;;;;;12.50;10.40;;;;;;;21.65;52.97;100328.91;20846717;28;20040;-74
2023/01/08 08:48:21;;;;;;;13.75;10.00;;;;;;;21.70;53.01;100319.69;20862162;28;20060;-76
2023/01/08 08:58:22;;;;;;;17.15;10.23;;;;;;;21.74;51.89;100317.66;20828016;28;20518;-75
2023/01/08 09:08:22;;;;;;;15.65;10.52;;;;;;;21.77;53.02;100319.19;20870680;28;20041;-76
2023/01/08 09:18:22;;;;;;;14.00;10.30;;;;;;;21.78;52.74;100313.78;20843254;28;20219;-79
2023/01/08 09:28:23;;;;;;;14.80;9.98;;;;;;;21.77;52.81;100306.84;20828002;28;20572;-76
2023/01/08 09:38:24;;;;;;;16.52;10.55;;;;;;;21.76;52.87;100297.25;20816054;28;20407;-80
2023/01/08 09:48:28;;;;;;;15.98;10.10;;;;;;;21.74;52.83;100278.94;20799798;28;20675;-76
2023/01/08 09:58:36;;;;;;;18.45;9.95;;;;;;;21.70;51.12;100258.22;20813749;28;20078;-73
2023/01/08 10:08:37;;;;;;;16.83;9.77;;;;;;;21.70;50.14;100227.47;20825117;28;20055;-76
2023/01/08 10:18:40;;;;;;;16.30;10.05;;;;;;;21.71;49.77;100213.28;20839834;28;20037;-78
2023/01/08 10:28:40;;;;;;;16.23;10.18;;;;;;;21.78;50.04;100202.28;20857458;28;20488;-76
2023/01/08 10:38:48;;;;;;;16.77;10.25;;;;;;;21.81;50.64;100178.28;20842362;28;20038;-76
2023/01/08 10:48:56;;;;;;;13.48;9.23;;;;;;;21.77;50.12;100166.34;20865719;28;20048;-77
2023/01/08 10:58:56;;;;;;;20.58;9.52;;;;;;;21.73;49.77;100157.84;20854983;28;20047;-76
2023/01/08 11:09:03;;;;;;;19.48;12.02;;;;;;;20.92;43.03;100147.69;20847006;28;20059;-75
2023/01/08 11:19:13;;;;;;;22.85;11.70;;;;;;;21.14;44.33;100125.75;20834416;28;20114;-79
2023/01/08 11:29:20;;;;;;;25.55;10.73;;;;;;;21.28;46.74;100106.16;20817018;28;20145;-77
2023/01/08 11:39:21;;;;;;;17.98;9.40;;;;;;;21.42;49.13;100091.84;20827168;28;20095;-77
2023/01/08 11:49:43;;;;;;;17.50;8.93;;;;;;;21.49;50.09;100068.47;20827635;28;20045;-74
2023/01/08 11:59:55;;;;;;;13.83;8.13;;;;;;;21.53;49.97;100051.44;20814455;28;20286;-79
2023/01/08 12:10:18;;;;;;;12.27;8.50;;;;;;;21.53;50.05;100049.66;20824083;28;20374;-77
2023/01/08 12:20:42;;;;;;;16.07;7.97;;;;;;;21.55;50.49;100041.63;20814930;28;20625;-76
2023/01/08 12:30:50;;;;;;;24.73;15.15;;;;;;;20.50;39.46;100040.47;20801288;28;20048;-75
2023/01/08 12:40:56;;;;;;;16.88;12.10;;;;;;;20.88;43.86;100035.72;20827739;28;20044;-76
2023/01/08 12:51:43;;;;;;;21.00;12.27;;;;;;;21.00;45.39;100031.25;20824289;28;20098;-82
2023/01/08 13:01:54;;;;;;;17.92;11.88;;;;;;;21.19;47.75;100023.50;20820442;28;20573;-84
2023/01/08 13:11:57;;;;;;;29.17;14.20;;;;;;;21.35;50.61;100022.22;20855121;28;20135;-81
2023/01/08 13:21:59;;;;;;;48.10;17.92;;;;;;;21.49;52.92;100019.25;20802203;28;20248;-81
2023/01/08 13:32:00;;;;;;;40.50;18.63;;;;;;;21.56;52.99;100006.41;20841462;28;20052;-80
2023/01/08 13:42:11;;;;;;;37.20;16.27;;;;;;;21.61;52.78;100006.88;20824669;28;20041;-76
2023/01/08 13:52:35;;;;;;;31.00;15.15;;;;;;;21.67;53.03;99997.63;20840283;28;20084;-75
2023/01/08 14:02:49;;;;;;;27.42;13.65;;;;;;;21.71;52.44;99999.84;20844113;28;20068;-76
2023/01/08 14:12:50;;;;;;;21.95;12.90;;;;;;;;;;20834569;28;20092;-78
2023/01/08 14:22:50;;;;;;;23.92;12.07;;;;;;;21.74;52.47;99991.69;20834264;28;20120;-76
2023/01/08 14:32:53;;;;;;;22.35;12.00;;;;;;;21.74;52.52;99996.13;20853315;28;20107;-76
2023/01/08 14:42:54;;;;;;;24.08;11.40;;;;;;;21.74;52.20;99996.94;20846821;28;20045;-76
2023/01/08 14:53:27;;;;;;;17.13;10.98;;;;;;;21.74;52.31;99993.50;20840131;28;20410;-77
2023/01/08 15:03:40;;;;;;;22.58;10.65;;;;;;;21.73;52.03;99981.28;20836593;28;20401;-79
2023/01/08 15:13:40;;;;;;;29.70;17.67;;;;;;;21.40;44.45;99988.44;20847121;28;20522;-78
2023/01/08 15:23:45;;;;;;;30.63;15.95;;;;;;;21.37;46.38;99980.78;20841103;28;20037;-84
2023/01/08 15:33:45;;;;;;;20.33;13.93;;;;;;;21.49;48.92;99968.38;20833014;28;20473;-86
2023/01/08 15:43:49;;;;;;;20.30;13.07;;;;;;;21.53;50.14;99964.50;20823290;28;20033;-80
2023/01/08 15:53:49;;;;;;;17.77;12.07;;;;;;;21.56;51.24;99951.94;20826466;28;20056;-80
2023/01/08 16:03:50;;;;;;;16.73;12.13;;;;;;;21.61;51.72;99946.28;20839397;28;20048;-81
2023/01/08 16:13:50;;;;;;;18.10;11.68;;;;;;;21.65;52.32;99949.47;20820764;28;20041;-79
2023/01/08 16:23:52;;;;;;;19.67;11.40;;;;;;;21.66;52.58;99943.25;20874032;28;20095;-80
2023/01/08 16:33:52;;;;;;;17.50;10.77;;;;;;;21.69;52.93;99932.44;20855135;28;20094;-81
2023/01/08 16:43:53;;;;;;;14.25;10.05;;;;;;;21.72;53.48;99930.38;20857821;28;20045;-80
2023/01/08 16:53:53;;;;;;;16.75;10.35;;;;;;;21.75;53.31;99924.84;20841605;28;20037;-81
2023/01/08 17:03:54;;;;;;;16.05;9.30;;;;;;;21.77;53.60;99922.06;20842007;28;20036;-79
2023/01/08 17:13:54;;;;;;;13.30;9.13;;;;;;;21.78;53.42;99915.81;20854878;28;20052;-79
2023/01/08 17:23:55;;;;;;;13.43;9.38;;;;;;;21.77;53.08;99916.78;20824230;28;20503;-81
2023/01/08 17:33:56;;;;;;;16.20;10.13;;;;;;;21.74;52.32;99910.00;20836835;28;20041;-78
2023/01/08 17:43:56;;;;;;;15.40;9.63;;;;;;;;;;20845904;28;20037;-82
2023/01/08 17:53:57;;;;;;;16.73;10.45;;;;;;;21.73;53.20;99891.69;20822523;28;20752;-76
2023/01/08 18:03:59;;;;;;;15.23;9.43;;;;;;;21.71;53.70;99902.34;20807419;28;20060;-76
2023/01/08 18:14:01;;;;;;;17.17;9.80;;;;;;;21.71;53.50;99894.44;20826247;28;20052;-75
2023/01/08 18:24:02;;;;;;;18.80;10.07;;;;;;;21.71;53.52;99894.44;20833852;28;20041;-74
2023/01/08 18:34:02;;;;;;;18.65;10.40;;;;;;;21.70;54.41;99892.78;20841726;28;20033;-74
2023/01/08 18:44:05;;;;;;;18.05;11.30;;;;;;;21.74;55.69;99894.19;20807885;28;20060;-81
2023/01/08 18:54:07;;;;;;;;;;;;;;;21.78;57.59;99889.47;20860944;28;20045;-80
2023/01/08 19:04:15;;;;;;;30.33;16.45;;;;;;;21.83;59.43;99897.81;20833182;28;19920;-79
2023/01/08 19:14:16;;;;;;;22.75;14.90;;;;;;;21.81;58.96;99888.38;20842759;28;20041;-76
2023/01/08 19:24:17;;;;;;;21.17;13.90;;;;;;;21.80;58.40;99890.19;20858614;28;20048;-77
2023/01/08 19:34:18;;;;;;;19.30;12.80;;;;;;;21.77;57.61;99884.34;20842714;28;20056;-83
2023/01/08 19:44:21;;;;;;;21.60;12.23;;;;;;;21.74;57.54;99880.19;20842461;28;20045;-76
2023/01/08 19:54:24;;;;;;;21.23;11.38;;;;;;;21.71;56.57;99868.09;20857931;28;20060;-80
2023/01/08 20:04:26;;;;;;;16.60;10.20;;;;;;;21.69;56.40;99858.66;20845757;28;20041;-80
2023/01/08 20:14:28;;;;;;;15.68;9.65;;;;;;;21.63;53.99;99854.78;20807495;28;20049;-77
2023/01/08 20:24:29;;;;;;;14.83;8.27;;;;;;;21.62;54.51;99855.72;20835207;28;20238;-77
2023/01/08 20:34:31;;;;;;;14.40;8.85;;;;;;;21.61;54.60;99854.06;20852300;28;20040;-81
2023/01/08 20:44:32;;;;;;;11.93;8.07;;;;;;;21.58;55.12;99844.63;20813644;28;20048;-77
2023/01/08 20:54:33;;;;;;;12.40;7.43;;;;;;;21.55;54.90;99826.41;20819361;28;20044;-77
2023/01/08 21:04:36;;;;;;;10.80;7.25;;;;;;;21.54;54.91;99821.28;20856954;28;20044;-76
2023/01/08 21:14:37;;;;;;;11.23;7.43;;;;;;;21.53;54.93;99811.72;20859734;28;20091;-79
2023/01/08 21:24:39;;;;;;;9.75;6.82;;;;;;;21.52;55.03;99807.41;20857021;28;20054;-82
2023/01/08 21:34:40;;;;;;;10.63;7.07;;;;;;;21.52;55.16;99796.88;20829724;28;20044;-78
2023/01/08 21:55:00;;;;;;;8.73;6.38;;;;;;;21.50;55.53;99793.56;20843628;28;20591;-79
2023/01/08 22:05:02;;;;;;;8.82;6.70;;;;;;;21.49;55.60;99784.00;20840620;28;20183;-79
2023/01/08 22:15:02;;;;;;;9.48;6.25;;;;;;;21.48;55.56;99779.69;20850723;28;20076;-80
2023/01/08 22:25:04;;;;;;;10.10;6.50;;;;;;;21.48;56.09;99774.41;20861411;28;20041;-78
2023/01/08 22:35:04;;;;;;;8.68;6.18;;;;;;;21.44;56.26;99758.88;20846199;28;20072;-77
2023/01/08 22:45:06;;;;;;;8.52;5.85;;;;;;;21.44;56.28;99743.06;20856636;28;20053;-77
2023/01/08 22:55:07;;;;;;;8.02;6.15;;;;;;;21.42;56.20;99731.84;20839969;28;20112;-81
2023/01/08 23:05:08;;;;;;;7.95;5.90;;;;;;;21.41;56.11;99716.16;20819356;28;20044;-79
2023/01/08 23:15:10;;;;;;;7.97;5.93;;;;;;;21.38;55.97;99703.28;20840615;28;20040;-76
2023/01/08 23:25:10;;;;;;;11.13;6.03;;;;;;;21.38;56.36;99705.91;20848795;28;20714;-80
2023/01/08 23:35:11;;;;;;;7.65;5.90;;;;;;;21.37;55.75;99688.44;20847860;28;20049;-77
2023/01/08 23:45:11;;;;;;;8.05;5.82;;;;;;;21.34;56.23;99683.47;20831017;28;20045;-77
2023/01/08 23:55:13;;;;;;;6.93;5.68;;;;;;;21.33;56.56;99684.44;20846645;28;20041;-77
